createdAt,value
2023-01-23T00:02:05.822Z,77.55
2023-01-23T00:04:36.970Z,77.47
2023-01-23T00:07:07.251Z,76.85
2023-01-23T00:09:37.291Z,77.97
2023-01-23T00:12:07.807Z,78.03
2023-01-23T00:14:41.575Z,77.70
2023-01-23T00:17:12.083Z,77.92
2023-01-23T00:19:42.104Z,78.56
2023-01-23T00:37:12.256Z,78.37
2023-01-23T00:39:51.932Z,77.81
2023-01-23T00:42:24.516Z,77.22
2023-01-23T00:44:57.596Z,79.22
2023-01-23T00:47:29.711Z,78.82
2023-01-23T00:50:02.316Z,79.64
2023-01-23T00:52:33.158Z,80.38
2023-01-23T00:55:03.896Z,79.79
2023-01-23T00:57:34.279Z,79.47
2023-01-23T01:00:07.766Z,80.02
2023-01-23T01:46:23.992Z,76.48
2023-01-23T01:49:16.497Z,76.13
2023-01-23T01:52:04.645Z,75.96
2023-01-23T01:54:43.492Z,75.03
2023-01-23T01:57:41.167Z,75.03
2023-01-23T02:00:21.445Z,74.75
2023-01-23T02:03:02.596Z,75.44
2023-01-23T02:05:37.520Z,75.41
2023-01-23T02:08:23.053Z,75.78
2023-01-23T02:11:15.400Z,75.99
2023-01-23T02:13:49.011Z,76.76
2023-01-23T02:16:29.199Z,77.41
2023-01-23T02:19:08.103Z,77.47
2023-01-23T02:21:47.471Z,77.72
2023-01-23T02:24:39.861Z,78.29
2023-01-23T02:27:26.126Z,78.01
2023-01-23T02:29:58.075Z,77.88
2023-01-23T02:32:34.046Z,79.54
2023-01-23T02:35:16.165Z,79.61
2023-01-23T02:37:48.789Z,80.03
2023-01-23T02:40:20.161Z,79.99
2023-01-23T02:42:53.720Z,80.62
2023-01-23T02:45:24.547Z,81.78
2023-01-23T02:47:54.405Z,82.10
2023-01-23T02:50:32.480Z,81.87
2023-01-23T02:53:11.515Z,81.88
2023-01-23T02:55:53.801Z,80.93
2023-01-23T02:58:52.003Z,80.36
2023-01-23T03:01:25.332Z,80.46
2023-01-23T03:03:59.461Z,79.99
2023-01-23T03:06:34.941Z,79.64
2023-01-23T03:09:12.994Z,79.50
2023-01-23T03:11:49.710Z,79.42
2023-01-23T03:14:23.135Z,79.57
2023-01-23T03:16:56.679Z,79.22
2023-01-23T03:19:35.550Z,79.02
2023-01-23T03:22:08.935Z,79.43
2023-01-23T03:24:42.080Z,79.22
2023-01-23T03:29:59.655Z,78.83
2023-01-23T03:32:33.232Z,78.79
2023-01-23T03:35:03.574Z,78.89
2023-01-23T03:37:33.631Z,79.40
2023-01-23T03:40:24.132Z,79.49
2023-01-23T03:42:54.773Z,79.59
2023-01-23T03:45:30.409Z,79.62
2023-01-23T03:48:00.711Z,79.79
2023-01-23T03:50:32.516Z,79.55
2023-01-23T03:53:02.784Z,79.86
2023-01-23T03:55:33.171Z,79.89
2023-01-23T03:58:03.227Z,79.54
2023-01-23T04:00:34.624Z,80.32
2023-01-23T04:03:10.103Z,80.19
2023-01-23T04:05:41.696Z,80.24
2023-01-23T04:08:11.782Z,80.39
2023-01-23T04:10:41.660Z,80.33
2023-01-23T04:13:16.986Z,80.43
2023-01-23T04:15:47.580Z,80.13
2023-01-23T04:18:18.681Z,80.07
2023-01-23T04:20:49.501Z,80.35
2023-01-23T04:23:19.883Z,80.16
2023-01-23T04:25:51.703Z,80.16
2023-01-23T04:28:23.221Z,80.35
2023-01-23T04:30:54.640Z,80.61
2023-01-23T04:33:31.384Z,80.41
2023-01-23T04:36:03.523Z,80.44
2023-01-23T04:38:34.906Z,79.96
2023-01-23T04:41:30.329Z,79.89
2023-01-23T04:44:22.269Z,79.89
2023-01-23T04:49:59.689Z,79.76
2023-01-23T04:52:33.274Z,79.17
2023-01-23T04:55:03.540Z,79.53
2023-01-23T04:57:33.977Z,79.48
2023-01-23T05:00:16.598Z,79.36
2023-01-23T05:02:48.451Z,79.15
2023-01-23T05:05:21.912Z,79.37
2023-01-23T05:07:54.091Z,79.06
2023-01-23T05:10:24.561Z,79.54
2023-01-23T05:12:54.667Z,79.81
2023-01-23T05:15:25.462Z,79.72
2023-01-23T05:17:55.379Z,79.78
2023-01-23T05:20:25.859Z,79.85
2023-01-23T05:22:58.648Z,79.85
2023-01-23T05:25:47.173Z,80.00
2023-01-23T05:28:17.383Z,80.11
2023-01-23T05:30:52.095Z,80.30
2023-01-23T05:33:28.363Z,80.14
2023-01-23T05:36:02.197Z,80.00
2023-01-23T05:38:32.436Z,79.72
2023-01-23T05:41:02.307Z,79.58
2023-01-23T05:43:41.563Z,79.64
2023-01-23T05:46:33.453Z,79.83
2023-01-23T05:49:03.808Z,79.87
2023-01-23T05:51:35.033Z,79.98
2023-01-23T05:54:05.558Z,79.87
2023-01-23T05:56:36.477Z,79.83
2023-01-23T05:59:24.802Z,80.03
2023-01-23T06:02:12.055Z,80.06
2023-01-23T06:04:42.330Z,79.97
2023-01-23T06:07:26.718Z,79.95
2023-01-23T06:09:59.906Z,80.04
2023-01-23T06:12:29.972Z,80.01
2023-01-23T06:14:59.765Z,79.97
2023-01-23T06:17:30.037Z,79.89
2023-01-23T06:19:59.970Z,79.63
2023-01-23T06:22:31.548Z,79.60
2023-01-23T06:25:09.978Z,79.57
2023-01-23T06:27:40.260Z,79.38
2023-01-23T06:30:12.357Z,79.54
2023-01-23T06:32:44.804Z,79.52
2023-01-23T06:35:18.438Z,79.69
2023-01-23T06:37:49.135Z,79.61
2023-01-23T06:40:21.993Z,79.51
2023-01-23T06:43:10.515Z,79.60
2023-01-23T06:45:40.807Z,79.83
2023-01-23T06:48:10.599Z,79.60
2023-01-23T06:50:44.735Z,79.70
2023-01-23T06:53:16.917Z,79.51
2023-01-23T06:55:48.273Z,79.43
2023-01-23T06:58:19.792Z,79.05
2023-01-23T07:00:51.705Z,78.96
2023-01-23T07:03:41.619Z,79.20
2023-01-23T07:06:12.482Z,79.20
2023-01-23T07:08:44.031Z,79.15
2023-01-23T07:11:14.569Z,79.25
2023-01-23T07:13:45.238Z,79.42
2023-01-23T07:16:17.603Z,79.09
2023-01-23T07:18:47.889Z,79.19
2023-01-23T07:21:17.750Z,78.83
2023-01-23T07:23:47.902Z,79.09
2023-01-23T07:26:17.672Z,78.82
2023-01-23T07:28:47.760Z,78.45
2023-01-23T07:31:17.822Z,78.93
2023-01-23T07:33:48.502Z,78.61
2023-01-23T07:36:19.635Z,78.58
2023-01-23T07:38:49.586Z,78.75
2023-01-23T07:41:19.337Z,78.79
2023-01-23T07:43:49.503Z,78.76
2023-01-23T07:46:26.913Z,79.17
2023-01-23T07:48:57.786Z,79.13
2023-01-23T07:51:27.698Z,79.06
2023-01-23T07:53:57.722Z,79.24
2023-01-23T07:56:27.556Z,79.77
2023-01-23T07:58:57.649Z,80.09
2023-01-23T08:01:55.957Z,80.13
2023-01-23T08:04:26.116Z,80.02
2023-01-23T08:06:55.890Z,79.79
2023-01-23T08:09:26.986Z,79.60
2023-01-23T08:11:57.245Z,79.42
2023-01-23T08:14:27.476Z,79.31
2023-01-23T08:16:57.875Z,79.43
2023-01-23T08:19:28.571Z,79.74
2023-01-23T08:21:58.356Z,79.83
2023-01-23T08:24:28.486Z,79.99
2023-01-23T08:26:58.304Z,80.08
2023-01-23T08:29:28.916Z,80.38
2023-01-23T08:32:03.477Z,80.40
2023-01-23T08:34:33.724Z,80.07
2023-01-23T08:37:04.711Z,80.22
2023-01-23T08:40:05.072Z,80.36
2023-01-23T08:42:37.108Z,80.33
2023-01-23T08:45:07.572Z,80.62
2023-01-23T08:47:37.785Z,80.52
2023-01-23T08:50:12.481Z,80.46
2023-01-23T08:52:45.981Z,80.40
2023-01-23T08:55:16.861Z,80.25
2023-01-23T08:57:46.863Z,80.20
2023-01-23T09:00:17.257Z,80.12
2023-01-23T09:05:50.897Z,80.44
2023-01-23T09:08:21.012Z,80.50
2023-01-23T09:10:50.821Z,80.77
2023-01-23T09:13:20.960Z,80.68
2023-01-23T09:15:50.762Z,80.85
2023-01-23T09:18:23.280Z,81.38
2023-01-23T09:20:54.289Z,81.28
2023-01-23T09:23:25.193Z,81.26
2023-01-23T09:25:55.160Z,81.04
2023-01-23T09:28:24.946Z,81.35
2023-01-23T09:30:55.263Z,81.52
2023-01-23T09:33:28.266Z,81.54
2023-01-23T09:35:58.992Z,81.32
2023-01-23T09:38:29.472Z,81.15
2023-01-23T09:41:01.052Z,80.86
2023-01-23T09:43:33.779Z,80.57
2023-01-23T09:46:17.330Z,80.47
2023-01-23T09:49:00.931Z,80.33
2023-01-23T09:52:12.826Z,79.87
2023-01-23T09:54:55.229Z,79.67
2023-01-23T09:57:40.782Z,79.03
2023-01-23T10:00:16.975Z,78.72
2023-01-23T10:02:47.894Z,77.40
2023-01-23T10:05:20.709Z,76.74
2023-01-23T10:08:30.188Z,76.40
2023-01-23T10:11:15.589Z,75.58
2023-01-23T10:14:17.366Z,75.26
2023-01-23T10:17:15.335Z,72.39
2023-01-23T10:20:20.709Z,63.64
2023-01-23T10:22:52.382Z,66.76
2023-01-23T10:25:27.002Z,64.66
2023-01-23T10:28:14.351Z,62.82
2023-01-23T10:30:51.290Z,68.74
2023-01-23T10:33:21.621Z,69.41
2023-01-23T10:36:00.279Z,70.29
2023-01-23T10:38:37.239Z,69.03
2023-01-23T10:41:16.009Z,67.42
2023-01-23T10:44:18.252Z,65.01
2023-01-23T10:46:54.008Z,62.31
2023-01-23T10:49:42.489Z,61.47
2023-01-23T10:52:52.379Z,60.52
2023-01-23T10:55:23.580Z,59.22
2023-01-23T10:57:58.298Z,57.34
2023-01-23T11:00:37.223Z,56.76
2023-01-23T11:03:24.636Z,58.42
2023-01-23T11:06:08.638Z,58.15
2023-01-23T11:08:41.900Z,60.69
2023-01-23T11:11:32.772Z,65.14
2023-01-23T11:14:09.125Z,65.53
2023-01-23T11:16:50.693Z,66.26
2023-01-23T11:19:49.851Z,66.72
2023-01-23T11:22:41.141Z,66.10
2023-01-23T11:25:50.830Z,67.18
2023-01-23T11:28:39.693Z,68.94
2023-01-23T11:31:15.650Z,66.01
2023-01-23T11:34:26.032Z,66.80
2023-01-23T11:37:19.607Z,67.82
2023-01-23T11:43:18.453Z,66.66
2023-01-23T11:50:18.999Z,67.94
2023-01-23T11:53:43.019Z,68.31
2023-01-23T11:57:00.623Z,68.73
2023-01-23T12:00:19.987Z,69.79
2023-01-23T12:02:57.416Z,70.78
2023-01-23T12:05:45.989Z,70.94
2023-01-23T12:08:53.363Z,70.53
2023-01-23T12:11:27.439Z,70.08
2023-01-23T12:14:06.417Z,70.02
2023-01-23T12:17:40.727Z,69.99
2023-01-23T12:20:29.242Z,69.90
2023-01-23T12:23:42.990Z,70.32
2023-01-23T12:37:29.892Z,69.95
2023-01-23T12:40:46.849Z,69.68
2023-01-23T12:44:30.086Z,69.63
2023-01-23T12:47:06.075Z,69.58
2023-01-23T12:50:00.460Z,69.97
2023-01-23T12:52:58.943Z,69.45
2023-01-23T12:55:57.270Z,70.23
2023-01-23T12:58:32.780Z,70.48
2023-01-23T13:01:23.605Z,70.37
2023-01-23T13:04:41.393Z,70.17
2023-01-23T13:11:57.936Z,70.70
2023-01-23T13:18:10.056Z,70.89
2023-01-23T13:21:17.381Z,70.68
2023-01-23T13:24:23.499Z,70.90
2023-01-23T13:26:57.396Z,70.99
2023-01-23T13:29:52.222Z,69.58
2023-01-23T13:32:24.505Z,69.71
2023-01-23T13:34:55.927Z,70.09
2023-01-23T13:37:55.817Z,70.22
2023-01-23T13:40:26.741Z,71.29
2023-01-23T13:42:56.558Z,71.27
2023-01-23T13:45:29.097Z,71.62
2023-01-23T14:21:56.077Z,72.54
2023-01-23T14:24:48.062Z,71.67
2023-01-23T14:27:30.690Z,71.44
2023-01-23T14:30:06.189Z,71.89
2023-01-23T14:32:36.066Z,70.49
2023-01-23T14:35:19.337Z,71.59
2023-01-23T14:37:49.970Z,71.99
2023-01-23T14:40:27.714Z,71.56
2023-01-23T14:43:09.339Z,72.17
2023-01-23T14:45:40.260Z,72.93
2023-01-23T14:48:17.265Z,72.28
2023-01-23T14:50:47.602Z,71.51
2023-01-23T14:53:18.659Z,72.76
2023-01-23T14:55:50.997Z,72.95
2023-01-23T14:58:25.642Z,72.03
2023-01-23T15:00:56.822Z,72.17
2023-01-23T15:03:56.319Z,72.01
2023-01-23T15:06:28.695Z,70.41
2023-01-23T15:09:17.355Z,71.34
2023-01-23T15:11:47.633Z,71.28
2023-01-23T15:14:27.072Z,71.43
2023-01-23T15:17:13.255Z,71.36
2023-01-23T15:19:43.745Z,72.20
2023-01-23T15:22:26.856Z,72.04
2023-01-23T15:25:29.788Z,72.06
2023-01-23T15:27:59.961Z,72.00
2023-01-23T15:30:42.103Z,72.06
2023-01-23T15:33:32.166Z,71.84
2023-01-23T15:36:28.520Z,71.71
2023-01-23T15:39:00.956Z,71.11
2023-01-23T15:41:49.759Z,72.05
2023-01-23T15:44:22.300Z,73.36
2023-01-23T15:46:53.051Z,73.33
2023-01-23T15:49:26.393Z,72.40
2023-01-23T15:51:58.571Z,74.25
2023-01-23T15:54:33.956Z,74.64
2023-01-23T15:57:08.547Z,72.93
2023-01-23T15:59:39.741Z,74.74
2023-01-23T16:02:29.565Z,75.04
2023-01-23T16:05:02.280Z,74.88
2023-01-23T16:07:35.572Z,75.60
2023-01-23T16:10:09.747Z,74.50
2023-01-23T16:12:41.205Z,72.86
2023-01-23T16:15:23.475Z,72.76
2023-01-23T16:17:54.021Z,73.12
2023-01-23T16:20:25.376Z,72.57
2023-01-23T16:23:11.712Z,73.12
2023-01-23T16:25:46.354Z,72.41
2023-01-23T16:28:19.021Z,73.24
2023-01-23T16:30:50.960Z,73.78
2023-01-23T16:33:24.556Z,73.36
2023-01-23T16:35:56.532Z,72.70
2023-01-23T16:38:29.535Z,70.63
2023-01-23T16:41:02.661Z,70.97
2023-01-23T16:43:33.036Z,70.94
2023-01-23T16:46:03.781Z,73.34
2023-01-23T16:48:35.027Z,72.70
2023-01-23T16:51:14.713Z,73.67
2023-01-23T16:53:50.948Z,72.02
2023-01-23T16:56:42.488Z,74.06
2023-01-23T16:59:22.925Z,75.65
2023-01-23T17:01:54.476Z,74.11
2023-01-23T17:04:24.689Z,72.23
2023-01-23T17:06:54.680Z,72.52
2023-01-23T17:09:25.439Z,73.52
2023-01-23T17:11:58.540Z,74.09
2023-01-23T17:14:32.413Z,74.34
2023-01-23T17:17:11.571Z,75.49
2023-01-23T17:19:43.856Z,76.22
2023-01-23T17:22:27.497Z,75.80
2023-01-23T17:24:58.241Z,76.72
2023-01-23T17:27:28.820Z,77.88
2023-01-23T17:29:59.511Z,77.96
2023-01-23T17:32:38.495Z,78.35
2023-01-23T17:35:20.292Z,77.23
2023-01-23T17:37:51.785Z,77.52
2023-01-23T17:40:22.645Z,77.30
2023-01-23T17:42:55.213Z,77.69
2023-01-23T17:45:28.412Z,78.39
2023-01-23T17:48:00.611Z,78.71
2023-01-23T17:50:31.120Z,79.56
2023-01-23T17:53:01.763Z,79.37
2023-01-23T17:55:38.653Z,79.12
2023-01-23T17:58:09.490Z,79.48
2023-01-23T18:00:41.149Z,78.99
2023-01-23T18:03:15.511Z,79.35
2023-01-23T18:05:45.919Z,79.11
2023-01-23T18:08:19.277Z,78.95
2023-01-23T18:10:52.884Z,78.88
2023-01-23T18:14:00.906Z,79.22
2023-01-23T18:16:42.882Z,79.82
2023-01-23T18:19:22.943Z,79.79
2023-01-23T18:21:56.025Z,79.77
2023-01-23T18:24:32.976Z,79.05
2023-01-23T18:27:18.664Z,79.95
2023-01-23T18:30:33.548Z,79.36
2023-01-23T18:33:16.932Z,79.24
2023-01-23T18:36:02.473Z,79.42
2023-01-23T18:38:58.311Z,78.93
2023-01-23T18:41:30.616Z,79.11
2023-01-23T18:44:08.974Z,79.62
2023-01-23T18:46:39.704Z,79.48
2023-01-23T18:49:16.925Z,77.73
2023-01-23T18:52:11.050Z,76.93
2023-01-23T18:55:04.185Z,76.42
2023-01-23T18:57:50.236Z,76.41
2023-01-23T19:00:42.022Z,76.77
2023-01-23T19:03:16.919Z,76.62
2023-01-23T19:05:48.189Z,75.99
2023-01-23T19:08:29.549Z,75.98
2023-01-23T19:11:06.536Z,76.65
2023-01-23T19:13:46.113Z,76.65
2023-01-23T19:16:38.710Z,76.64
2023-01-23T19:19:30.519Z,75.74
2023-01-23T19:22:01.279Z,75.09
2023-01-23T19:24:32.545Z,74.48
2023-01-23T19:27:06.846Z,74.07
2023-01-23T19:29:38.738Z,73.85
2023-01-23T19:32:16.613Z,74.26
2023-01-23T19:34:48.015Z,73.73
2023-01-23T19:37:19.998Z,73.83
2023-01-23T19:39:50.876Z,74.32
2023-01-23T19:42:21.762Z,74.54
2023-01-23T19:44:53.414Z,74.33
2023-01-23T19:47:23.548Z,73.38
2023-01-23T19:49:54.257Z,73.75
2023-01-23T19:52:25.931Z,73.87
2023-01-23T19:54:56.749Z,73.73
2023-01-23T19:57:26.663Z,73.80
2023-01-23T19:59:56.877Z,73.83
2023-01-23T20:02:27.696Z,74.04
2023-01-23T20:04:59.828Z,74.43
2023-01-23T20:07:29.912Z,73.81
2023-01-23T20:09:59.965Z,74.04
2023-01-23T20:12:30.101Z,74.12
2023-01-23T20:15:00.531Z,74.14
2023-01-23T20:17:30.700Z,74.53
2023-01-23T20:20:12.515Z,74.93
2023-01-23T20:22:44.775Z,75.08
2023-01-23T20:25:20.557Z,74.54
2023-01-23T20:27:52.137Z,74.14
2023-01-23T20:30:23.240Z,74.78
2023-01-23T20:32:53.708Z,74.58
2023-01-23T20:35:25.107Z,74.88
2023-01-23T20:37:55.628Z,74.73
2023-01-23T20:40:25.707Z,75.43
2023-01-23T20:42:56.155Z,74.45
2023-01-23T20:45:43.213Z,75.31
2023-01-23T20:48:35.714Z,74.05
2023-01-23T20:51:13.249Z,72.57
2023-01-23T20:56:43.747Z,71.49
2023-01-23T21:02:44.850Z,71.32
2023-01-23T21:05:28.196Z,71.36
2023-01-23T21:07:59.001Z,71.15
2023-01-23T21:10:57.279Z,71.39
2023-01-23T21:13:50.392Z,70.21
2023-01-23T21:16:26.315Z,70.16
2023-01-23T21:18:58.261Z,70.03
2023-01-23T21:21:29.950Z,70.12
2023-01-23T21:24:00.502Z,69.72
2023-01-23T21:26:31.245Z,69.72
2023-01-23T21:29:01.796Z,69.94
2023-01-23T21:31:37.039Z,69.81
2023-01-23T21:34:10.349Z,69.91
2023-01-23T21:36:42.529Z,69.82
2023-01-23T21:39:15.621Z,70.14
2023-01-23T21:41:45.811Z,70.40
2023-01-23T21:44:16.009Z,70.45
2023-01-23T21:46:48.166Z,70.52
2023-01-23T21:49:18.715Z,70.81
2023-01-23T21:51:48.620Z,71.07
2023-01-23T21:54:20.805Z,71.34
2023-01-23T21:56:50.938Z,71.10
2023-01-23T21:59:20.823Z,71.95
2023-01-23T22:01:51.176Z,73.61
2023-01-23T22:04:25.814Z,74.05
2023-01-23T22:06:58.246Z,74.26
2023-01-23T22:09:29.253Z,74.78
2023-01-23T22:11:59.516Z,74.96
2023-01-23T22:14:29.440Z,76.04
2023-01-23T22:16:59.601Z,76.56
2023-01-23T22:19:29.739Z,77.14
2023-01-23T22:21:59.994Z,77.22
2023-01-23T22:24:31.488Z,77.71
2023-01-23T22:27:01.784Z,78.06
2023-01-23T22:29:31.706Z,78.53
2023-01-23T22:32:10.690Z,79.26
2023-01-23T22:34:41.623Z,79.75
2023-01-23T22:37:17.031Z,79.50
2023-01-23T22:39:48.805Z,79.43
2023-01-23T22:42:20.309Z,79.81
2023-01-23T22:44:50.338Z,80.06
2023-01-23T22:47:36.199Z,79.94
2023-01-23T22:50:07.364Z,79.83
2023-01-23T22:52:38.565Z,80.15
2023-01-23T22:55:11.058Z,80.78
2023-01-23T22:57:49.186Z,80.70
2023-01-23T23:00:20.198Z,80.47
2023-01-23T23:02:50.323Z,80.58
2023-01-23T23:05:20.411Z,80.39
2023-01-23T23:07:50.917Z,80.18
2023-01-23T23:10:21.182Z,80.31
2023-01-23T23:12:51.590Z,80.25
2023-01-23T23:15:22.640Z,80.42
2023-01-23T23:17:53.102Z,80.71
2023-01-23T23:20:23.012Z,81.19
2023-01-23T23:22:54.397Z,81.21
2023-01-23T23:25:24.531Z,81.38
2023-01-23T23:27:54.684Z,80.90
2023-01-23T23:30:26.339Z,80.17
2023-01-23T23:32:56.675Z,79.85
2023-01-23T23:35:27.226Z,79.66
2023-01-23T23:37:57.645Z,79.74
2023-01-23T23:40:29.305Z,79.85
2023-01-23T23:43:00.513Z,79.43
2023-01-23T23:45:30.729Z,78.99
2023-01-23T23:54:08.012Z,76.72
2023-01-23T23:56:39.093Z,76.33
2023-01-23T23:59:18.508Z,76.27
